PWSweather.com
Personal Weather Stations
Station Observations
UWIDEPER1
Brown County, Depere, WI 54115

Brown CountyDepere, WI 54115

Lat: 44.44, Lon: -88.05

Elevation: 610

Station Type: Acurite 5in1

www.depereweather.com

High Low Average
Temperature 69.8°F21.0°C 45.9°F7.7°C 60.8°F16.0°C
Dew Point 58.4°F14.7°C 39.4°F4.1°C 49.7°F9.8°C
Winds 8.1 mph 13.0 kmh Calm Calm 3.0 mph SSE4.8 kmh SSE
Wind Gusts 15.0 mph24.1 kmh -- 4.0 mph6.4 kmh
Humidity 98% 37% 69%
Pressure 30.05 in1017.6 mb 29.80 in1009.1 mb -
Precipitation 0.05 in1.3 mm - -
Hour Temp Dew Point Humidity Winds Wind Gusts Pressure Precip Precip Rate Daily Precip Total
12:00 AM 60.8°F16.0°C 58.2°F14.6°C 91% 1.2 mph W1.9 kmh W 2.3 mph3.7 kmh 29.80 in1009.1 mb - 0.05 in1.3 mm 0.05 in1.3 mm
12:10 AM 60.8°F16.0°C 58.8°F14.9°C 93% 1.2 mph WNW1.9 kmh WNW 1.2 mph1.9 kmh 29.80 in1009.1 mb - 0.04 in1.0 mm 0.09 in2.3 mm
12:15 AM 60.8°F16.0°C 58.8°F14.9°C 93% Calm Calm -- 29.80 in1009.1 mb - 0.04 in1.0 mm 0.01 in0.3 mm
12:20 AM 60.8°F16.0°C 58.8°F14.9°C 93% Calm Calm 1.2 mph1.9 kmh 29.80 in1009.1 mb - 0.04 in1.0 mm 0.01 in0.3 mm
12:25 AM 60.8°F16.0°C 58.8°F14.9°C 93% Calm Calm 3.5 mph5.6 kmh 29.82 in1009.8 mb - 0.04 in1.0 mm 0.01 in0.3 mm
12:30 AM 60.8°F16.0°C 58.8°F14.9°C 93% 1.2 mph NW1.9 kmh NW 2.3 mph3.7 kmh 29.80 in1009.1 mb - 0.04 in1.0 mm 0.01 in0.3 mm
12:35 AM 60.8°F16.0°C 58.8°F14.9°C 93% 1.2 mph NNW1.9 kmh NNW 3.5 mph5.6 kmh 29.81 in1009.5 mb - 0.04 in1.0 mm 0.01 in0.3 mm
12:40 AM 60.8°F16.0°C 58.8°F14.9°C 93% 2.3 mph E3.7 kmh E 2.3 mph3.7 kmh 29.82 in1009.8 mb - 0.04 in1.0 mm 0.02 in0.5 mm
12:45 AM 60.8°F16.0°C 58.8°F14.9°C 93% 1.2 mph WNW1.9 kmh WNW 3.5 mph5.6 kmh 29.82 in1009.8 mb - 0.03 in0.8 mm 0.02 in0.5 mm
12:50 AM 60.8°F16.0°C 58.8°F14.9°C 93% 1.2 mph WSW1.9 kmh WSW -- 29.82 in1009.8 mb - 0.03 in0.8 mm 0.02 in0.5 mm
12:55 AM 60.8°F16.0°C 58.8°F14.9°C 93% Calm Calm -- 29.82 in1009.8 mb - 0.02 in0.5 mm 0.02 in0.5 mm
01:00 AM 59.0°F15.0°C 57.0°F13.9°C 93% Calm Calm -- 29.82 in1009.8 mb - 0.02 in0.5 mm 0.02 in0.5 mm
01:10 AM 59.0°F15.0°C 57.6°F14.2°C 95% Calm Calm 2.3 mph3.7 kmh 29.83 in1010.2 mb - 0.03 in0.8 mm 0.03 in0.8 mm
01:15 AM 59.0°F15.0°C 57.6°F14.2°C 95% Calm Calm -- 29.82 in1009.8 mb - 0.02 in0.5 mm 0.03 in0.8 mm
01:20 AM 59.0°F15.0°C 57.6°F14.2°C 95% Calm Calm -- 29.82 in1009.8 mb - 0.02 in0.5 mm 0.03 in0.8 mm
01:25 AM 59.0°F15.0°C 57.6°F14.2°C 95% Calm Calm -- 29.82 in1009.8 mb - 0.02 in0.5 mm 0.03 in0.8 mm
01:30 AM 59.0°F15.0°C 57.6°F14.2°C 95% Calm Calm -- 29.82 in1009.8 mb - 0.02 in0.5 mm 0.03 in0.8 mm
01:35 AM 59.0°F15.0°C 57.6°F14.2°C 95% Calm Calm -- 29.81 in1009.5 mb - 0.03 in0.8 mm 0.04 in1.0 mm
01:40 AM 59.0°F15.0°C 57.6°F14.2°C 95% Calm Calm -- 29.81 in1009.5 mb - 0.02 in0.5 mm 0.04 in1.0 mm
01:45 AM 59.0°F15.0°C 57.6°F14.2°C 95% Calm Calm -- 29.80 in1009.1 mb - 0.02 in0.5 mm 0.04 in1.0 mm
01:50 AM 59.0°F15.0°C 57.9°F14.4°C 96% Calm Calm -- 29.80 in1009.1 mb - 0.02 in0.5 mm 0.04 in1.0 mm
01:55 AM 59.0°F15.0°C 57.9°F14.4°C 96% Calm Calm 1.2 mph1.9 kmh 29.80 in1009.1 mb - 0.02 in0.5 mm 0.04 in1.0 mm
02:00 AM 59.0°F15.0°C 57.9°F14.4°C 96% Calm Calm 1.2 mph1.9 kmh 29.80 in1009.1 mb - 0.02 in0.5 mm 0.04 in1.0 mm
02:10 AM 59.0°F15.0°C 57.9°F14.4°C 96% Calm Calm -- 29.80 in1009.1 mb - 0.01 in0.3 mm 0.04 in1.0 mm
02:15 AM 59.0°F15.0°C 57.9°F14.4°C 96% Calm Calm 1.2 mph1.9 kmh 29.80 in1009.1 mb - 0.01 in0.3 mm 0.04 in1.0 mm
02:20 AM 59.0°F15.0°C 57.9°F14.4°C 96% Calm Calm -- 29.81 in1009.5 mb - 0.01 in0.3 mm 0.04 in1.0 mm
02:25 AM 59.0°F15.0°C 57.9°F14.4°C 96% Calm Calm -- 29.81 in1009.5 mb - 0.01 in0.3 mm 0.04 in1.0 mm
02:30 AM 59.0°F15.0°C 57.9°F14.4°C 96% 1.2 mph WSW1.9 kmh WSW 2.3 mph3.7 kmh 29.81 in1009.5 mb - 0.02 in0.5 mm 0.05 in1.3 mm
02:35 AM 59.0°F15.0°C 57.9°F14.4°C 96% 1.2 mph WSW1.9 kmh WSW 2.3 mph3.7 kmh 29.82 in1009.8 mb - 0.01 in0.3 mm 0.05 in1.3 mm
02:40 AM 59.0°F15.0°C 57.9°F14.4°C 96% 1.2 mph W1.9 kmh W 1.2 mph1.9 kmh 29.82 in1009.8 mb - 0.01 in0.3 mm 0.05 in1.3 mm
02:45 AM 59.0°F15.0°C 57.9°F14.4°C 96% 1.2 mph SW1.9 kmh SW 2.3 mph3.7 kmh 29.82 in1009.8 mb - 0.01 in0.3 mm 0.05 in1.3 mm
02:50 AM 59.0°F15.0°C 57.9°F14.4°C 96% 1.2 mph WNW1.9 kmh WNW 2.3 mph3.7 kmh 29.83 in1010.2 mb - 0.01 in0.3 mm 0.05 in1.3 mm
02:55 AM 59.0°F15.0°C 57.9°F14.4°C 96% 1.2 mph W1.9 kmh W 2.3 mph3.7 kmh 29.83 in1010.2 mb - 0.01 in0.3 mm 0.05 in1.3 mm
03:00 AM 59.0°F15.0°C 57.9°F14.4°C 96% 1.2 mph W1.9 kmh W 2.3 mph3.7 kmh 29.83 in1010.2 mb - 0.01 in0.3 mm 0.05 in1.3 mm
03:10 AM 59.0°F15.0°C 57.9°F14.4°C 96% 2.3 mph W3.7 kmh W 3.5 mph5.6 kmh 29.84 in1010.5 mb - 0.01 in0.3 mm 0.05 in1.3 mm
03:15 AM 59.0°F15.0°C 57.9°F14.4°C 96% 2.3 mph W3.7 kmh W 3.5 mph5.6 kmh 29.84 in1010.5 mb - 0.01 in0.3 mm 0.05 in1.3 mm
03:20 AM 59.0°F15.0°C 57.9°F14.4°C 96% 2.3 mph W3.7 kmh W 3.5 mph5.6 kmh 29.83 in1010.2 mb - 0.01 in0.3 mm 0.05 in1.3 mm
03:25 AM 59.0°F15.0°C 57.9°F14.4°C 96% 1.2 mph WSW1.9 kmh WSW 2.3 mph3.7 kmh 29.83 in1010.2 mb - 0.01 in0.3 mm 0.05 in1.3 mm
03:30 AM 59.0°F15.0°C 57.9°F14.4°C 96% 1.2 mph SW1.9 kmh SW 1.2 mph1.9 kmh 29.84 in1010.5 mb - 0.00 in0.0 mm 0.05 in1.3 mm
03:35 AM 59.0°F15.0°C 57.9°F14.4°C 96% 1.2 mph S1.9 kmh S -- 29.83 in1010.2 mb - 0.00 in0.0 mm 0.05 in1.3 mm
03:40 AM 59.0°F15.0°C 57.9°F14.4°C 96% Calm Calm -- 29.83 in1010.2 mb - 0.00 in0.0 mm 0.05 in1.3 mm
03:45 AM 59.0°F15.0°C 57.9°F14.4°C 96% Calm Calm -- 29.83 in1010.2 mb - 0.00 in0.0 mm 0.05 in1.3 mm
03:50 AM 59.0°F15.0°C 57.9°F14.4°C 96% Calm Calm 2.3 mph3.7 kmh 29.83 in1010.2 mb - 0.00 in0.0 mm 0.05 in1.3 mm
03:55 AM 59.0°F15.0°C 57.9°F14.4°C 96% 1.2 mph W1.9 kmh W 2.3 mph3.7 kmh 29.83 in1010.2 mb - 0.00 in0.0 mm 0.05 in1.3 mm
04:00 AM 59.0°F15.0°C 57.9°F14.4°C 96% 1.2 mph WSW1.9 kmh WSW 1.2 mph1.9 kmh 29.83 in1010.2 mb - 0.00 in0.0 mm 0.05 in1.3 mm
04:10 AM 59.0°F15.0°C 58.4°F14.7°C 98% 1.2 mph WSW1.9 kmh WSW 1.2 mph1.9 kmh 29.83 in1010.2 mb - 0.00 in0.0 mm 0.05 in1.3 mm
04:15 AM 59.0°F15.0°C 58.4°F14.7°C 98% 1.2 mph SSE1.9 kmh SSE 2.3 mph3.7 kmh 29.83 in1010.2 mb - 0.00 in0.0 mm 0.05 in1.3 mm
04:20 AM 59.0°F15.0°C 58.4°F14.7°C 98% 2.3 mph W3.7 kmh W 2.3 mph3.7 kmh 29.83 in1010.2 mb - 0.00 in0.0 mm 0.05 in1.3 mm
04:25 AM 59.0°F15.0°C 58.4°F14.7°C 98% 1.2 mph WSW1.9 kmh WSW 2.3 mph3.7 kmh 29.86 in1011.2 mb - 0.00 in0.0 mm 0.05 in1.3 mm
04:30 AM 59.0°F15.0°C 58.4°F14.7°C 98% 2.3 mph WNW3.7 kmh WNW 2.3 mph3.7 kmh 29.84 in1010.5 mb - 0.00 in0.0 mm 0.05 in1.3 mm
04:35 AM 59.0°F15.0°C 58.4°F14.7°C 98% 1.2 mph W1.9 kmh W 1.2 mph1.9 kmh 29.84 in1010.5 mb - 0.00 in0.0 mm 0.05 in1.3 mm
04:40 AM 59.0°F15.0°C 58.4°F14.7°C 98% 1.2 mph WNW1.9 kmh WNW 3.5 mph5.6 kmh 29.84 in1010.5 mb - 0.00 in0.0 mm 0.05 in1.3 mm
04:45 AM 59.0°F15.0°C 58.4°F14.7°C 98% 2.3 mph W3.7 kmh W 2.3 mph3.7 kmh 29.83 in1010.2 mb - 0.00 in0.0 mm 0.05 in1.3 mm
04:50 AM 59.0°F15.0°C 58.4°F14.7°C 98% 1.2 mph NNW1.9 kmh NNW 2.3 mph3.7 kmh 29.83 in1010.2 mb - 0.00 in0.0 mm 0.05 in1.3 mm
04:55 AM 59.0°F15.0°C 57.9°F14.4°C 96% 2.3 mph NW3.7 kmh NW 3.5 mph5.6 kmh 29.85 in1010.8 mb - 0.00 in0.0 mm 0.05 in1.3 mm
05:00 AM 59.0°F15.0°C 57.9°F14.4°C 96% 2.3 mph WNW3.7 kmh WNW 5.8 mph9.3 kmh 29.85 in1010.8 mb - 0.00 in0.0 mm 0.05 in1.3 mm
05:10 AM 59.0°F15.0°C 57.9°F14.4°C 96% 1.2 mph W1.9 kmh W 2.3 mph3.7 kmh 29.85 in1010.8 mb - 0.00 in0.0 mm 0.05 in1.3 mm
05:15 AM 59.0°F15.0°C 57.9°F14.4°C 96% Calm Calm 1.2 mph1.9 kmh 29.85 in1010.8 mb - 0.00 in0.0 mm 0.05 in1.3 mm
05:20 AM 59.0°F15.0°C 57.9°F14.4°C 96% 1.2 mph NW1.9 kmh NW 1.2 mph1.9 kmh 29.85 in1010.8 mb - 0.00 in0.0 mm 0.05 in1.3 mm
05:25 AM 59.0°F15.0°C 57.9°F14.4°C 96% 1.2 mph NW1.9 kmh NW 3.5 mph5.6 kmh 29.86 in1011.2 mb - 0.00 in0.0 mm 0.05 in1.3 mm
05:30 AM 59.0°F15.0°C 57.9°F14.4°C 96% 2.3 mph W3.7 kmh W 3.5 mph5.6 kmh 29.86 in1011.2 mb - 0.00 in0.0 mm 0.05 in1.3 mm
05:35 AM 59.0°F15.0°C 57.6°F14.2°C 95% 2.3 mph NW3.7 kmh NW 3.5 mph5.6 kmh 29.86 in1011.2 mb - 0.00 in0.0 mm 0.05 in1.3 mm
05:40 AM 59.0°F15.0°C 57.6°F14.2°C 95% 2.3 mph W3.7 kmh W 4.6 mph7.4 kmh 29.86 in1011.2 mb - 0.00 in0.0 mm 0.05 in1.3 mm
05:45 AM 59.0°F15.0°C 57.0°F13.9°C 93% 1.2 mph NW1.9 kmh NW 3.5 mph5.6 kmh 29.85 in1010.8 mb - 0.00 in0.0 mm 0.05 in1.3 mm
05:50 AM 59.0°F15.0°C 57.0°F13.9°C 93% 2.3 mph W3.7 kmh W 5.8 mph9.3 kmh 29.86 in1011.2 mb - 0.00 in0.0 mm 0.05 in1.3 mm
05:55 AM 59.0°F15.0°C 57.0°F13.9°C 93% 2.3 mph W3.7 kmh W 3.5 mph5.6 kmh 29.86 in1011.2 mb - 0.00 in0.0 mm 0.05 in1.3 mm
06:00 AM 59.0°F15.0°C 57.0°F13.9°C 93% 3.5 mph WNW5.6 kmh WNW 3.5 mph5.6 kmh 29.87 in1011.5 mb - 0.00 in0.0 mm 0.05 in1.3 mm
06:10 AM 59.0°F15.0°C 56.4°F13.6°C 91% 3.5 mph NW5.6 kmh NW 3.5 mph5.6 kmh 29.88 in1011.9 mb - 0.00 in0.0 mm 0.05 in1.3 mm
06:15 AM 59.0°F15.0°C 56.4°F13.6°C 91% 3.5 mph WNW5.6 kmh WNW 3.5 mph5.6 kmh 29.88 in1011.9 mb - 0.00 in0.0 mm 0.05 in1.3 mm
06:20 AM 59.0°F15.0°C 56.4°F13.6°C 91% 3.5 mph WNW5.6 kmh WNW 4.6 mph7.4 kmh 29.89 in1012.2 mb - 0.00 in0.0 mm 0.05 in1.3 mm
06:25 AM 59.0°F15.0°C 56.4°F13.6°C 91% 3.5 mph W5.6 kmh W 3.5 mph5.6 kmh 29.89 in1012.2 mb - 0.00 in0.0 mm 0.05 in1.3 mm
06:30 AM 59.0°F15.0°C 56.4°F13.6°C 91% 3.5 mph NW5.6 kmh NW 5.8 mph9.3 kmh 29.89 in1012.2 mb - 0.00 in0.0 mm 0.05 in1.3 mm
06:35 AM 59.0°F15.0°C 56.4°F13.6°C 91% 2.3 mph NW3.7 kmh NW 3.5 mph5.6 kmh 29.89 in1012.2 mb - 0.00 in0.0 mm 0.05 in1.3 mm
06:40 AM 59.0°F15.0°C 56.1°F13.4°C 90% 3.5 mph NW5.6 kmh NW 4.6 mph7.4 kmh 29.89 in1012.2 mb - 0.00 in0.0 mm 0.05 in1.3 mm
06:45 AM 59.0°F15.0°C 56.1°F13.4°C 90% 3.5 mph NW5.6 kmh NW 3.5 mph5.6 kmh 29.89 in1012.2 mb - 0.00 in0.0 mm 0.05 in1.3 mm
06:50 AM 59.0°F15.0°C 56.1°F13.4°C 90% 3.5 mph W5.6 kmh W 2.3 mph3.7 kmh 29.89 in1012.2 mb - 0.00 in0.0 mm 0.05 in1.3 mm
06:55 AM 59.0°F15.0°C 56.1°F13.4°C 90% 3.5 mph W5.6 kmh W 3.5 mph5.6 kmh 29.89 in1012.2 mb - 0.00 in0.0 mm 0.05 in1.3 mm
07:00 AM 59.0°F15.0°C 55.4°F13.0°C 88% 3.5 mph WNW5.6 kmh WNW 8.1 mph13.0 kmh 29.90 in1012.5 mb - 0.00 in0.0 mm 0.05 in1.3 mm
07:10 AM 60.8°F16.0°C 56.6°F13.7°C 86% 4.6 mph NW7.4 kmh NW 6.9 mph11.1 kmh 29.90 in1012.5 mb - 0.00 in0.0 mm 0.05 in1.3 mm
07:15 AM 60.8°F16.0°C 55.6°F13.1°C 83% 2.3 mph N3.7 kmh N 5.8 mph9.3 kmh 29.91 in1012.9 mb - 0.00 in0.0 mm 0.05 in1.3 mm
07:20 AM 62.6°F17.0°C 56.7°F13.7°C 81% 4.6 mph NNW7.4 kmh NNW 3.5 mph5.6 kmh 29.91 in1012.9 mb - 0.00 in0.0 mm 0.05 in1.3 mm
07:25 AM 62.6°F17.0°C 55.6°F13.1°C 78% 4.6 mph NNW7.4 kmh NNW 5.8 mph9.3 kmh 29.92 in1013.2 mb - 0.00 in0.0 mm 0.05 in1.3 mm
07:30 AM 62.6°F17.0°C 54.6°F12.6°C 75% 5.8 mph NE9.3 kmh NE 11.5 mph18.5 kmh 29.92 in1013.2 mb - 0.00 in0.0 mm 0.05 in1.3 mm
07:35 AM 62.8°F17.1°C 54.8°F12.7°C 75% 3.5 mph NW5.6 kmh NW 3.5 mph5.6 kmh 29.92 in1013.2 mb - 0.00 in0.0 mm 0.05 in1.3 mm
07:40 AM 64.4°F18.0°C 54.8°F12.7°C 71% 3.5 mph NW5.6 kmh NW 6.9 mph11.1 kmh 29.93 in1013.5 mb - 0.00 in0.0 mm 0.05 in1.3 mm
07:45 AM 64.4°F18.0°C 54.4°F12.4°C 70% 5.8 mph NNE9.3 kmh NNE 10.4 mph16.7 kmh 29.93 in1013.5 mb - 0.00 in0.0 mm 0.05 in1.3 mm
07:50 AM 64.4°F18.0°C 54.0°F12.2°C 69% 4.6 mph N7.4 kmh N 3.5 mph5.6 kmh 29.93 in1013.5 mb - 0.00 in0.0 mm 0.05 in1.3 mm
07:55 AM 64.4°F18.0°C 53.6°F12.0°C 68% 4.6 mph N7.4 kmh N 5.8 mph9.3 kmh 29.94 in1013.9 mb - 0.00 in0.0 mm 0.05 in1.3 mm
08:00 AM 64.4°F18.0°C 52.8°F11.6°C 66% 4.6 mph N7.4 kmh N 4.6 mph7.4 kmh 29.94 in1013.9 mb - 0.00 in0.0 mm 0.05 in1.3 mm
08:10 AM 64.4°F18.0°C 52.4°F11.3°C 65% 5.8 mph NNE9.3 kmh NNE 10.4 mph16.7 kmh 29.95 in1014.2 mb - 0.00 in0.0 mm 0.05 in1.3 mm
08:15 AM 64.4°F18.0°C 52.8°F11.6°C 66% 5.8 mph NE9.3 kmh NE 3.5 mph5.6 kmh 29.95 in1014.2 mb - 0.00 in0.0 mm 0.05 in1.3 mm
08:20 AM 64.4°F18.0°C 52.4°F11.3°C 65% 3.5 mph NNW5.6 kmh NNW 9.2 mph14.8 kmh 29.95 in1014.2 mb - 0.00 in0.0 mm 0.05 in1.3 mm
08:25 AM 64.4°F18.0°C 52.4°F11.3°C 65% 4.6 mph N7.4 kmh N 9.2 mph14.8 kmh 29.96 in1014.6 mb - 0.00 in0.0 mm 0.05 in1.3 mm
08:30 AM 64.4°F18.0°C 52.4°F11.3°C 65% 3.5 mph NW5.6 kmh NW 5.8 mph9.3 kmh 29.96 in1014.6 mb - 0.00 in0.0 mm 0.05 in1.3 mm
08:35 AM 64.4°F18.0°C 52.4°F11.3°C 65% 4.6 mph NNE7.4 kmh NNE 4.6 mph7.4 kmh 29.96 in1014.6 mb - 0.00 in0.0 mm 0.05 in1.3 mm
08:40 AM 64.4°F18.0°C 54.0°F12.2°C 69% 4.6 mph NNE7.4 kmh NNE 10.4 mph16.7 kmh 29.97 in1014.9 mb - 0.00 in0.0 mm 0.05 in1.3 mm
08:45 AM 64.4°F18.0°C 54.0°F12.2°C 69% 4.6 mph NE7.4 kmh NE 6.9 mph11.1 kmh 29.98 in1015.2 mb - 0.00 in0.0 mm 0.05 in1.3 mm
08:50 AM 64.4°F18.0°C 54.0°F12.2°C 69% 5.8 mph N9.3 kmh N 4.6 mph7.4 kmh 29.97 in1014.9 mb - 0.00 in0.0 mm 0.05 in1.3 mm
08:55 AM 64.4°F18.0°C 52.8°F11.6°C 66% 4.6 mph NE7.4 kmh NE 6.9 mph11.1 kmh 29.97 in1014.9 mb - 0.00 in0.0 mm 0.05 in1.3 mm
09:00 AM 64.4°F18.0°C 52.4°F11.3°C 65% 5.8 mph N9.3 kmh N 5.8 mph9.3 kmh 29.98 in1015.2 mb - 0.00 in0.0 mm 0.05 in1.3 mm
09:10 AM 64.4°F18.0°C 50.7°F10.4°C 61% 8.1 mph NE13.0 kmh NE 11.5 mph18.5 kmh 29.99 in1015.6 mb - 0.00 in0.0 mm 0.05 in1.3 mm
09:15 AM 62.6°F17.0°C 49.0°F9.4°C 61% 6.9 mph ESE11.1 kmh ESE 5.8 mph9.3 kmh 29.99 in1015.6 mb - 0.00 in0.0 mm 0.05 in1.3 mm
09:20 AM 64.4°F18.0°C 50.2°F10.1°C 60% 4.6 mph NNE7.4 kmh NNE 6.9 mph11.1 kmh 29.99 in1015.6 mb - 0.00 in0.0 mm 0.05 in1.3 mm
09:25 AM 64.4°F18.0°C 50.2°F10.1°C 60% 5.8 mph NNE9.3 kmh NNE 15.0 mph24.1 kmh 29.99 in1015.6 mb - 0.00 in0.0 mm 0.05 in1.3 mm
09:30 AM 62.6°F17.0°C 49.0°F9.4°C 61% 8.1 mph N13.0 kmh N 11.5 mph18.5 kmh 29.99 in1015.6 mb - 0.00 in0.0 mm 0.05 in1.3 mm
09:35 AM 62.6°F17.0°C 49.0°F9.4°C 61% 5.8 mph NE9.3 kmh NE 8.1 mph13.0 kmh 29.99 in1015.6 mb - 0.00 in0.0 mm 0.05 in1.3 mm
09:40 AM 62.7°F17.1°C 49.1°F9.5°C 61% 5.8 mph NE9.3 kmh NE 8.1 mph13.0 kmh 29.99 in1015.6 mb - 0.00 in0.0 mm 0.05 in1.3 mm
09:45 AM 62.6°F17.0°C 49.0°F9.4°C 61% 5.8 mph ENE9.3 kmh ENE 8.1 mph13.0 kmh 29.99 in1015.6 mb - 0.00 in0.0 mm 0.05 in1.3 mm
09:50 AM 62.6°F17.0°C 48.5°F9.2°C 60% 6.9 mph NE11.1 kmh NE 9.2 mph14.8 kmh 29.99 in1015.6 mb - 0.00 in0.0 mm 0.05 in1.3 mm
09:55 AM 60.8°F16.0°C 47.3°F8.5°C 61% 6.9 mph SE11.1 kmh SE 5.8 mph9.3 kmh 30.00 in1015.9 mb - 0.00 in0.0 mm 0.05 in1.3 mm
10:00 AM 62.6°F17.0°C 49.4°F9.7°C 62% 6.9 mph N11.1 kmh N 11.5 mph18.5 kmh 30.00 in1015.9 mb - 0.00 in0.0 mm 0.05 in1.3 mm
10:10 AM 62.6°F17.0°C 49.0°F9.4°C 61% 5.8 mph NE9.3 kmh NE 10.4 mph16.7 kmh 30.00 in1015.9 mb - 0.00 in0.0 mm 0.05 in1.3 mm
10:15 AM 62.6°F17.0°C 49.0°F9.4°C 61% 6.9 mph NNE11.1 kmh NNE 9.2 mph14.8 kmh 30.00 in1015.9 mb - 0.00 in0.0 mm 0.05 in1.3 mm
10:20 AM 62.6°F17.0°C 48.5°F9.2°C 60% 5.8 mph N9.3 kmh N 10.4 mph16.7 kmh 30.00 in1015.9 mb - 0.00 in0.0 mm 0.05 in1.3 mm
10:25 AM 62.6°F17.0°C 48.5°F9.2°C 60% 5.8 mph NNE9.3 kmh NNE 5.8 mph9.3 kmh 30.01 in1016.3 mb - 0.00 in0.0 mm 0.05 in1.3 mm
10:30 AM 61.3°F16.3°C 46.8°F8.2°C 59% 6.9 mph NE11.1 kmh NE 8.1 mph13.0 kmh 30.01 in1016.3 mb - 0.00 in0.0 mm 0.05 in1.3 mm
10:35 AM 60.8°F16.0°C 46.8°F8.2°C 60% 6.9 mph E11.1 kmh E 8.1 mph13.0 kmh 30.01 in1016.3 mb - 0.00 in0.0 mm 0.05 in1.3 mm
10:40 AM 62.6°F17.0°C 48.5°F9.2°C 60% 5.8 mph NE9.3 kmh NE 4.6 mph7.4 kmh 30.02 in1016.6 mb - 0.00 in0.0 mm 0.05 in1.3 mm
10:45 AM 62.6°F17.0°C 49.0°F9.4°C 61% 4.6 mph NNE7.4 kmh NNE 8.1 mph13.0 kmh 30.02 in1016.6 mb - 0.00 in0.0 mm 0.05 in1.3 mm
10:50 AM 62.6°F17.0°C 49.0°F9.4°C 61% 5.8 mph NE9.3 kmh NE 8.1 mph13.0 kmh 30.03 in1016.9 mb - 0.00 in0.0 mm 0.05 in1.3 mm
10:55 AM 62.6°F17.0°C 48.5°F9.2°C 60% 5.8 mph NNW9.3 kmh NNW 4.6 mph7.4 kmh 30.03 in1016.9 mb - 0.00 in0.0 mm 0.05 in1.3 mm
11:00 AM 64.3°F17.9°C 49.6°F9.8°C 59% 4.6 mph NNE7.4 kmh NNE 3.5 mph5.6 kmh 30.03 in1016.9 mb - 0.00 in0.0 mm 0.05 in1.3 mm
11:10 AM 64.4°F18.0°C 49.8°F9.9°C 59% 4.6 mph NNE7.4 kmh NNE 3.5 mph5.6 kmh 30.03 in1016.9 mb - 0.00 in0.0 mm 0.05 in1.3 mm
11:15 AM 64.4°F18.0°C 49.3°F9.6°C 58% 3.5 mph ENE5.6 kmh ENE 4.6 mph7.4 kmh 30.03 in1016.9 mb - 0.00 in0.0 mm 0.05 in1.3 mm
11:20 AM 64.4°F18.0°C 47.9°F8.8°C 55% 4.6 mph ENE7.4 kmh ENE 8.1 mph13.0 kmh 30.03 in1016.9 mb - 0.00 in0.0 mm 0.05 in1.3 mm
11:25 AM 66.2°F19.0°C 50.0°F10.0°C 56% 3.5 mph NE5.6 kmh NE 5.8 mph9.3 kmh 30.03 in1016.9 mb - 0.00 in0.0 mm 0.05 in1.3 mm
11:30 AM 64.4°F18.0°C 48.4°F9.1°C 56% 5.8 mph N9.3 kmh N 8.1 mph13.0 kmh 30.03 in1016.9 mb - 0.00 in0.0 mm 0.05 in1.3 mm
11:35 AM 64.4°F18.0°C 48.4°F9.1°C 56% 5.8 mph NE9.3 kmh NE 10.4 mph16.7 kmh 30.04 in1017.3 mb - 0.00 in0.0 mm 0.05 in1.3 mm
11:40 AM 64.4°F18.0°C 47.9°F8.8°C 55% 4.6 mph ENE7.4 kmh ENE 5.8 mph9.3 kmh 30.04 in1017.3 mb - 0.00 in0.0 mm 0.05 in1.3 mm
11:45 AM 66.2°F19.0°C 49.6°F9.8°C 55% 3.5 mph NE5.6 kmh NE 8.1 mph13.0 kmh 30.04 in1017.3 mb - 0.00 in0.0 mm 0.05 in1.3 mm
11:50 AM 64.4°F18.0°C 47.9°F8.8°C 55% 5.8 mph ENE9.3 kmh ENE 3.5 mph5.6 kmh 30.04 in1017.3 mb - 0.00 in0.0 mm 0.05 in1.3 mm
11:55 AM 65.0°F18.3°C 48.4°F9.1°C 55% 4.6 mph NE7.4 kmh NE 3.5 mph5.6 kmh 30.04 in1017.3 mb - 0.00 in0.0 mm 0.05 in1.3 mm
12:00 PM 66.2°F19.0°C 50.0°F10.0°C 56% 3.5 mph NNE5.6 kmh NNE 10.4 mph16.7 kmh 30.04 in1017.3 mb - 0.00 in0.0 mm 0.05 in1.3 mm
12:10 PM 66.2°F19.0°C 49.6°F9.8°C 55% 5.8 mph NNE9.3 kmh NNE 6.9 mph11.1 kmh 30.04 in1017.3 mb - 0.00 in0.0 mm 0.05 in1.3 mm
12:15 PM 66.2°F19.0°C 49.6°F9.8°C 55% 4.6 mph NNE7.4 kmh NNE 4.6 mph7.4 kmh 30.04 in1017.3 mb - 0.00 in0.0 mm 0.05 in1.3 mm
12:20 PM 66.2°F19.0°C 49.6°F9.8°C 55% 4.6 mph NNW7.4 kmh NNW 4.6 mph7.4 kmh 30.04 in1017.3 mb - 0.00 in0.0 mm 0.05 in1.3 mm
12:25 PM 66.2°F19.0°C 49.6°F9.8°C 55% 4.6 mph NW7.4 kmh NW 6.9 mph11.1 kmh 30.04 in1017.3 mb - 0.00 in0.0 mm 0.05 in1.3 mm
12:30 PM 66.2°F19.0°C 49.6°F9.8°C 55% 5.8 mph NW9.3 kmh NW 8.1 mph13.0 kmh 30.04 in1017.3 mb - 0.00 in0.0 mm 0.05 in1.3 mm
12:35 PM 66.2°F19.0°C 49.6°F9.8°C 55% 5.8 mph NNE9.3 kmh NNE 4.6 mph7.4 kmh 30.03 in1016.9 mb - 0.00 in0.0 mm 0.05 in1.3 mm
12:40 PM 66.2°F19.0°C 49.6°F9.8°C 55% 4.6 mph NE7.4 kmh NE 8.1 mph13.0 kmh 30.04 in1017.3 mb - 0.00 in0.0 mm 0.05 in1.3 mm
12:45 PM 66.2°F19.0°C 49.6°F9.8°C 55% 5.8 mph NNE9.3 kmh NNE 6.9 mph11.1 kmh 30.04 in1017.3 mb - 0.00 in0.0 mm 0.05 in1.3 mm
12:50 PM 66.2°F19.0°C 49.6°F9.8°C 55% 4.6 mph NE7.4 kmh NE 4.6 mph7.4 kmh 30.04 in1017.3 mb - 0.00 in0.0 mm 0.05 in1.3 mm
12:55 PM 66.2°F19.0°C 49.6°F9.8°C 55% 4.6 mph NNE7.4 kmh NNE 3.5 mph5.6 kmh 30.04 in1017.3 mb - 0.00 in0.0 mm 0.05 in1.3 mm
01:00 PM 67.6°F19.8°C 51.4°F10.8°C 56% 3.5 mph E5.6 kmh E 5.8 mph9.3 kmh 30.05 in1017.6 mb - 0.00 in0.0 mm 0.05 in1.3 mm
01:10 PM 68.0°F20.0°C 51.2°F10.7°C 55% 3.5 mph NE5.6 kmh NE 3.5 mph5.6 kmh 30.04 in1017.3 mb - 0.00 in0.0 mm 0.05 in1.3 mm
01:15 PM 66.2°F19.0°C 48.6°F9.2°C 53% 4.6 mph NNE7.4 kmh NNE 5.8 mph9.3 kmh 30.05 in1017.6 mb - 0.00 in0.0 mm 0.05 in1.3 mm
01:20 PM 67.5°F19.7°C 50.8°F10.4°C 55% 4.6 mph NNE7.4 kmh NNE 4.6 mph7.4 kmh 30.05 in1017.6 mb - 0.00 in0.0 mm 0.05 in1.3 mm
01:25 PM 66.2°F19.0°C 49.6°F9.8°C 55% 3.5 mph N5.6 kmh N 4.6 mph7.4 kmh 30.04 in1017.3 mb - 0.00 in0.0 mm 0.05 in1.3 mm
01:30 PM 68.0°F20.0°C 51.2°F10.7°C 55% 3.5 mph NNE5.6 kmh NNE 3.5 mph5.6 kmh 30.05 in1017.6 mb - 0.00 in0.0 mm 0.05 in1.3 mm
01:35 PM 68.9°F20.5°C 52.1°F11.2°C 55% 3.5 mph N5.6 kmh N 3.5 mph5.6 kmh 30.05 in1017.6 mb - 0.00 in0.0 mm 0.05 in1.3 mm
01:40 PM 68.0°F20.0°C 51.2°F10.7°C 55% 3.5 mph W5.6 kmh W 4.6 mph7.4 kmh 30.05 in1017.6 mb - 0.00 in0.0 mm 0.05 in1.3 mm
01:45 PM 68.0°F20.0°C 51.2°F10.7°C 55% 3.5 mph NW5.6 kmh NW 3.5 mph5.6 kmh 30.05 in1017.6 mb - 0.00 in0.0 mm 0.05 in1.3 mm
01:50 PM 68.0°F20.0°C 49.7°F9.8°C 52% 3.5 mph SE5.6 kmh SE 3.5 mph5.6 kmh 30.05 in1017.6 mb - 0.00 in0.0 mm 0.05 in1.3 mm
01:55 PM 69.8°F21.0°C 51.4°F10.8°C 52% 3.5 mph SE5.6 kmh SE 3.5 mph5.6 kmh 30.05 in1017.6 mb - 0.00 in0.0 mm 0.05 in1.3 mm
02:00 PM 69.8°F21.0°C 50.9°F10.5°C 51% 3.5 mph NE5.6 kmh NE 4.6 mph7.4 kmh 30.05 in1017.6 mb - 0.00 in0.0 mm 0.05 in1.3 mm
02:10 PM 69.8°F21.0°C 50.3°F10.2°C 50% 4.6 mph ESE7.4 kmh ESE 5.8 mph9.3 kmh 30.04 in1017.3 mb - 0.00 in0.0 mm 0.05 in1.3 mm
02:15 PM 69.8°F21.0°C 50.9°F10.5°C 51% 3.5 mph NNE5.6 kmh NNE 3.5 mph5.6 kmh 30.03 in1016.9 mb - 0.00 in0.0 mm 0.05 in1.3 mm
02:20 PM 69.8°F21.0°C 49.8°F9.9°C 49% 3.5 mph ENE5.6 kmh ENE 3.5 mph5.6 kmh 30.03 in1016.9 mb - 0.00 in0.0 mm 0.05 in1.3 mm
02:25 PM 69.8°F21.0°C 50.3°F10.2°C 50% 3.5 mph NE5.6 kmh NE 6.9 mph11.1 kmh 30.03 in1016.9 mb - 0.00 in0.0 mm 0.05 in1.3 mm
02:30 PM 69.8°F21.0°C 50.3°F10.2°C 50% 3.5 mph NE5.6 kmh NE 5.8 mph9.3 kmh 30.03 in1016.9 mb - 0.00 in0.0 mm 0.05 in1.3 mm
02:35 PM 69.8°F21.0°C 49.8°F9.9°C 49% 4.6 mph NE7.4 kmh NE 4.6 mph7.4 kmh 30.03 in1016.9 mb - 0.00 in0.0 mm 0.05 in1.3 mm
02:40 PM 69.8°F21.0°C 49.8°F9.9°C 49% 3.5 mph E5.6 kmh E 3.5 mph5.6 kmh 30.03 in1016.9 mb - 0.00 in0.0 mm 0.05 in1.3 mm
02:45 PM 69.8°F21.0°C 50.3°F10.2°C 50% 3.5 mph N5.6 kmh N 4.6 mph7.4 kmh 30.03 in1016.9 mb - 0.00 in0.0 mm 0.05 in1.3 mm
02:50 PM 69.8°F21.0°C 50.3°F10.2°C 50% 3.5 mph N5.6 kmh N 6.9 mph11.1 kmh 30.03 in1016.9 mb - 0.00 in0.0 mm 0.05 in1.3 mm
02:55 PM 69.8°F21.0°C 50.3°F10.2°C 50% 4.6 mph NNW7.4 kmh NNW 3.5 mph5.6 kmh 30.03 in1016.9 mb - 0.00 in0.0 mm 0.05 in1.3 mm
03:00 PM 69.8°F21.0°C 49.8°F9.9°C 49% 4.6 mph N7.4 kmh N 5.8 mph9.3 kmh 30.03 in1016.9 mb - 0.00 in0.0 mm 0.05 in1.3 mm
03:10 PM 69.8°F21.0°C 49.8°F9.9°C 49% 5.8 mph NW9.3 kmh NW 10.4 mph16.7 kmh 30.02 in1016.6 mb - 0.00 in0.0 mm 0.05 in1.3 mm
03:15 PM 69.8°F21.0°C 50.3°F10.2°C 50% 5.8 mph W9.3 kmh W 4.6 mph7.4 kmh 30.02 in1016.6 mb - 0.00 in0.0 mm 0.05 in1.3 mm
03:20 PM 68.8°F20.4°C 49.4°F9.7°C 50% 5.8 mph N9.3 kmh N 11.5 mph18.5 kmh 30.02 in1016.6 mb - 0.00 in0.0 mm 0.05 in1.3 mm
03:25 PM 68.1°F20.1°C 48.8°F9.3°C 50% 5.8 mph N9.3 kmh N 5.8 mph9.3 kmh 30.02 in1016.6 mb - 0.00 in0.0 mm 0.05 in1.3 mm
03:30 PM 68.0°F20.0°C 48.1°F8.9°C 49% 5.8 mph N9.3 kmh N 4.6 mph7.4 kmh 30.02 in1016.6 mb - 0.00 in0.0 mm 0.05 in1.3 mm
03:35 PM 68.0°F20.0°C 48.1°F8.9°C 49% 6.9 mph NW11.1 kmh NW 9.2 mph14.8 kmh 30.02 in1016.6 mb - 0.00 in0.0 mm 0.05 in1.3 mm
03:40 PM 69.8°F21.0°C 49.8°F9.9°C 49% 4.6 mph NW7.4 kmh NW 5.8 mph9.3 kmh 30.02 in1016.6 mb - 0.00 in0.0 mm 0.05 in1.3 mm
03:45 PM 69.8°F21.0°C 49.8°F9.9°C 49% 4.6 mph N7.4 kmh N 6.9 mph11.1 kmh 30.01 in1016.3 mb - 0.00 in0.0 mm 0.05 in1.3 mm
03:50 PM 69.8°F21.0°C 50.3°F10.2°C 50% 3.5 mph ENE5.6 kmh ENE 3.5 mph5.6 kmh 30.01 in1016.3 mb - 0.00 in0.0 mm 0.05 in1.3 mm
03:55 PM 69.8°F21.0°C 50.3°F10.2°C 50% 4.6 mph NE7.4 kmh NE 6.9 mph11.1 kmh 30.01 in1016.3 mb - 0.00 in0.0 mm 0.05 in1.3 mm
04:00 PM 69.8°F21.0°C 49.8°F9.9°C 49% 4.6 mph NE7.4 kmh NE 5.8 mph9.3 kmh 30.02 in1016.6 mb - 0.00 in0.0 mm 0.05 in1.3 mm
04:10 PM 69.8°F21.0°C 48.1°F8.9°C 46% 4.6 mph NE7.4 kmh NE 5.8 mph9.3 kmh 30.02 in1016.6 mb - 0.00 in0.0 mm 0.05 in1.3 mm
04:15 PM 69.8°F21.0°C 46.9°F8.3°C 44% 3.5 mph N5.6 kmh N 3.5 mph5.6 kmh 30.02 in1016.6 mb - 0.00 in0.0 mm 0.05 in1.3 mm
04:20 PM 69.8°F21.0°C 46.3°F7.9°C 43% 3.5 mph N5.6 kmh N 5.8 mph9.3 kmh 30.02 in1016.6 mb - 0.00 in0.0 mm 0.05 in1.3 mm
04:25 PM 69.8°F21.0°C 47.5°F8.6°C 45% 3.5 mph N5.6 kmh N 4.6 mph7.4 kmh 30.02 in1016.6 mb - 0.00 in0.0 mm 0.05 in1.3 mm
04:30 PM 69.8°F21.0°C 45.7°F7.6°C 42% 3.5 mph E5.6 kmh E 5.8 mph9.3 kmh 30.03 in1016.9 mb - 0.00 in0.0 mm 0.05 in1.3 mm
04:35 PM 69.8°F21.0°C 45.0°F7.2°C 41% 4.6 mph NE7.4 kmh NE 3.5 mph5.6 kmh 30.03 in1016.9 mb - 0.00 in0.0 mm 0.05 in1.3 mm
04:40 PM 69.8°F21.0°C 44.4°F6.9°C 40% 3.5 mph E5.6 kmh E 3.5 mph5.6 kmh 30.03 in1016.9 mb - 0.00 in0.0 mm 0.05 in1.3 mm
04:45 PM 69.8°F21.0°C 42.3°F5.7°C 37% 3.5 mph N5.6 kmh N 3.5 mph5.6 kmh 30.03 in1016.9 mb - 0.00 in0.0 mm 0.05 in1.3 mm
04:50 PM 69.8°F21.0°C 46.9°F8.3°C 44% 3.5 mph N5.6 kmh N 8.1 mph13.0 kmh 30.03 in1016.9 mb - 0.00 in0.0 mm 0.05 in1.3 mm
04:55 PM 68.2°F20.1°C 44.8°F7.1°C 43% 4.6 mph NNE7.4 kmh NNE 6.9 mph11.1 kmh 30.03 in1016.9 mb - 0.00 in0.0 mm 0.05 in1.3 mm
05:00 PM 68.0°F20.0°C 44.7°F7.1°C 43% 3.5 mph N5.6 kmh N 6.9 mph11.1 kmh 30.03 in1016.9 mb - 0.00 in0.0 mm 0.05 in1.3 mm
05:10 PM 69.8°F21.0°C 45.0°F7.2°C 41% 2.3 mph NNE3.7 kmh NNE 4.6 mph7.4 kmh 30.03 in1016.9 mb - 0.00 in0.0 mm 0.05 in1.3 mm
05:15 PM 69.8°F21.0°C 46.9°F8.3°C 44% 3.5 mph E5.6 kmh E 5.8 mph9.3 kmh 30.03 in1016.9 mb - 0.00 in0.0 mm 0.05 in1.3 mm
05:20 PM 68.0°F20.0°C 45.9°F7.7°C 45% 3.5 mph SE5.6 kmh SE 2.3 mph3.7 kmh 30.03 in1016.9 mb - 0.00 in0.0 mm 0.05 in1.3 mm
05:25 PM 69.8°F21.0°C 47.5°F8.6°C 45% 2.3 mph NE3.7 kmh NE 4.6 mph7.4 kmh 30.03 in1016.9 mb - 0.00 in0.0 mm 0.05 in1.3 mm
05:30 PM 69.8°F21.0°C 47.5°F8.6°C 45% 3.5 mph N5.6 kmh N 4.6 mph7.4 kmh 30.03 in1016.9 mb - 0.00 in0.0 mm 0.05 in1.3 mm
05:35 PM 69.0°F20.6°C 47.3°F8.5°C 46% 3.5 mph NE5.6 kmh NE 3.5 mph5.6 kmh 30.02 in1016.6 mb - 0.00 in0.0 mm 0.05 in1.3 mm
05:40 PM 68.0°F20.0°C 45.9°F7.7°C 45% 3.5 mph NE5.6 kmh NE 3.5 mph5.6 kmh 30.02 in1016.6 mb - 0.00 in0.0 mm 0.05 in1.3 mm
05:45 PM 68.0°F20.0°C 45.9°F7.7°C 45% 3.5 mph N5.6 kmh N 3.5 mph5.6 kmh 30.02 in1016.6 mb - 0.00 in0.0 mm 0.05 in1.3 mm
05:50 PM 68.2°F20.1°C 45.5°F7.5°C 44% 3.5 mph NE5.6 kmh NE 3.5 mph5.6 kmh 30.02 in1016.6 mb - 0.00 in0.0 mm 0.05 in1.3 mm
05:55 PM 68.0°F20.0°C 45.3°F7.4°C 44% 2.3 mph E3.7 kmh E 4.6 mph7.4 kmh 30.01 in1016.3 mb - 0.00 in0.0 mm 0.05 in1.3 mm
06:00 PM 68.0°F20.0°C 45.9°F7.7°C 45% 3.5 mph E5.6 kmh E 4.6 mph7.4 kmh 30.02 in1016.6 mb - 0.00 in0.0 mm 0.05 in1.3 mm
06:10 PM 68.0°F20.0°C 45.3°F7.4°C 44% 3.5 mph NE5.6 kmh NE 3.5 mph5.6 kmh 30.01 in1016.3 mb - 0.00 in0.0 mm 0.05 in1.3 mm
06:15 PM 68.0°F20.0°C 45.3°F7.4°C 44% 2.3 mph ESE3.7 kmh ESE 4.6 mph7.4 kmh 30.01 in1016.3 mb - 0.00 in0.0 mm 0.05 in1.3 mm
06:20 PM 66.2°F19.0°C 49.6°F9.8°C 55% 4.6 mph SE7.4 kmh SE 3.5 mph5.6 kmh 30.01 in1016.3 mb - 0.00 in0.0 mm 0.05 in1.3 mm
06:25 PM 66.2°F19.0°C 50.0°F10.0°C 56% 3.5 mph SE5.6 kmh SE 5.8 mph9.3 kmh 30.00 in1015.9 mb - 0.00 in0.0 mm 0.05 in1.3 mm
06:30 PM 64.4°F18.0°C 49.3°F9.6°C 58% 4.6 mph E7.4 kmh E 5.8 mph9.3 kmh 30.01 in1016.3 mb - 0.00 in0.0 mm 0.05 in1.3 mm
06:35 PM 64.4°F18.0°C 49.3°F9.6°C 58% 4.6 mph ESE7.4 kmh ESE 3.5 mph5.6 kmh 30.02 in1016.6 mb - 0.00 in0.0 mm 0.05 in1.3 mm
06:40 PM 64.4°F18.0°C 49.3°F9.6°C 58% 4.6 mph E7.4 kmh E 5.8 mph9.3 kmh 30.01 in1016.3 mb - 0.00 in0.0 mm 0.05 in1.3 mm
06:45 PM 64.4°F18.0°C 49.3°F9.6°C 58% 4.6 mph SE7.4 kmh SE 5.8 mph9.3 kmh 30.01 in1016.3 mb - 0.00 in0.0 mm 0.05 in1.3 mm
06:50 PM 64.2°F17.9°C 49.1°F9.5°C 58% 3.5 mph E5.6 kmh E 5.8 mph9.3 kmh 30.01 in1016.3 mb - 0.00 in0.0 mm 0.05 in1.3 mm
06:55 PM 62.6°F17.0°C 48.1°F8.9°C 59% 3.5 mph E5.6 kmh E 3.5 mph5.6 kmh 30.01 in1016.3 mb - 0.00 in0.0 mm 0.05 in1.3 mm
07:00 PM 62.6°F17.0°C 48.1°F8.9°C 59% 3.5 mph ESE5.6 kmh ESE 5.8 mph9.3 kmh 30.02 in1016.6 mb - 0.00 in0.0 mm 0.05 in1.3 mm
07:10 PM 62.6°F17.0°C 48.1°F8.9°C 59% 3.5 mph SE5.6 kmh SE 4.6 mph7.4 kmh 30.01 in1016.3 mb - 0.00 in0.0 mm 0.05 in1.3 mm
07:15 PM 60.8°F16.0°C 46.8°F8.2°C 60% 3.5 mph E5.6 kmh E 3.5 mph5.6 kmh 30.01 in1016.3 mb - 0.00 in0.0 mm 0.05 in1.3 mm
07:20 PM 60.8°F16.0°C 47.3°F8.5°C 61% 3.5 mph E5.6 kmh E 3.5 mph5.6 kmh 30.01 in1016.3 mb - 0.00 in0.0 mm 0.05 in1.3 mm
07:25 PM 60.8°F16.0°C 47.3°F8.5°C 61% 2.3 mph E3.7 kmh E 3.5 mph5.6 kmh 30.01 in1016.3 mb - 0.00 in0.0 mm 0.05 in1.3 mm
07:30 PM 60.8°F16.0°C 47.3°F8.5°C 61% 3.5 mph NE5.6 kmh NE 2.3 mph3.7 kmh 30.01 in1016.3 mb - 0.00 in0.0 mm 0.05 in1.3 mm
07:35 PM 59.0°F15.0°C 45.6°F7.6°C 61% 2.3 mph SE3.7 kmh SE 2.3 mph3.7 kmh 30.01 in1016.3 mb - 0.00 in0.0 mm 0.05 in1.3 mm
07:40 PM 59.0°F15.0°C 45.6°F7.6°C 61% 2.3 mph E3.7 kmh E 3.5 mph5.6 kmh 30.01 in1016.3 mb - 0.00 in0.0 mm 0.05 in1.3 mm
07:45 PM 59.0°F15.0°C 46.4°F8.0°C 63% 2.3 mph ENE3.7 kmh ENE 2.3 mph3.7 kmh 30.01 in1016.3 mb - 0.00 in0.0 mm 0.05 in1.3 mm
07:50 PM 59.0°F15.0°C 45.6°F7.6°C 61% 2.3 mph NE3.7 kmh NE 4.6 mph7.4 kmh 30.01 in1016.3 mb - 0.00 in0.0 mm 0.05 in1.3 mm
07:55 PM 59.0°F15.0°C 45.6°F7.6°C 61% 2.3 mph E3.7 kmh E 4.6 mph7.4 kmh 30.01 in1016.3 mb - 0.00 in0.0 mm 0.05 in1.3 mm
08:00 PM 59.0°F15.0°C 45.6°F7.6°C 61% 3.5 mph E5.6 kmh E 3.5 mph5.6 kmh 30.01 in1016.3 mb - 0.00 in0.0 mm 0.05 in1.3 mm
08:10 PM 57.2°F14.0°C 43.9°F6.6°C 61% 1.2 mph SE1.9 kmh SE 2.3 mph3.7 kmh 30.01 in1016.3 mb - 0.00 in0.0 mm 0.05 in1.3 mm
08:15 PM 57.2°F14.0°C 44.7°F7.1°C 63% 1.2 mph E1.9 kmh E 1.2 mph1.9 kmh 30.01 in1016.3 mb - 0.00 in0.0 mm 0.05 in1.3 mm
08:20 PM 57.2°F14.0°C 44.7°F7.1°C 63% 1.2 mph ENE1.9 kmh ENE 1.2 mph1.9 kmh 30.01 in1016.3 mb - 0.00 in0.0 mm 0.05 in1.3 mm
08:25 PM 55.4°F13.0°C 43.0°F6.1°C 63% 1.2 mph ESE1.9 kmh ESE 3.5 mph5.6 kmh 30.01 in1016.3 mb - 0.00 in0.0 mm 0.05 in1.3 mm
08:30 PM 55.4°F13.0°C 43.8°F6.6°C 65% 1.2 mph ESE1.9 kmh ESE -- 30.01 in1016.3 mb - 0.00 in0.0 mm 0.05 in1.3 mm
08:35 PM 55.4°F13.0°C 43.8°F6.6°C 65% Calm Calm -- 30.01 in1016.3 mb - 0.00 in0.0 mm 0.05 in1.3 mm
08:40 PM 55.4°F13.0°C 43.8°F6.6°C 65% Calm Calm 2.3 mph3.7 kmh 30.01 in1016.3 mb - 0.00 in0.0 mm 0.05 in1.3 mm
08:45 PM 53.6°F12.0°C 42.1°F5.6°C 65% 1.2 mph E1.9 kmh E -- 30.01 in1016.3 mb - 0.00 in0.0 mm 0.05 in1.3 mm
08:50 PM 53.6°F12.0°C 42.1°F5.6°C 65% Calm Calm -- 30.01 in1016.3 mb - 0.00 in0.0 mm 0.05 in1.3 mm
08:55 PM 53.6°F12.0°C 42.1°F5.6°C 65% Calm Calm -- 30.00 in1015.9 mb - 0.00 in0.0 mm 0.05 in1.3 mm
09:00 PM 53.6°F12.0°C 42.1°F5.6°C 65% Calm Calm -- 30.01 in1016.3 mb - 0.00 in0.0 mm 0.05 in1.3 mm
09:10 PM 51.8°F11.0°C 40.4°F4.7°C 65% Calm Calm -- 30.01 in1016.3 mb - 0.00 in0.0 mm 0.05 in1.3 mm
09:15 PM 51.8°F11.0°C 40.8°F4.9°C 66% Calm Calm -- 30.02 in1016.6 mb - 0.00 in0.0 mm 0.05 in1.3 mm
09:20 PM 51.8°F11.0°C 40.8°F4.9°C 66% Calm Calm -- 30.01 in1016.3 mb - 0.00 in0.0 mm 0.05 in1.3 mm
09:25 PM 51.8°F11.0°C 41.6°F5.3°C 68% Calm Calm -- 30.01 in1016.3 mb - 0.00 in0.0 mm 0.05 in1.3 mm
09:30 PM 51.8°F11.0°C 41.6°F5.3°C 68% Calm Calm 1.2 mph1.9 kmh 30.01 in1016.3 mb - 0.00 in0.0 mm 0.05 in1.3 mm
09:35 PM 51.8°F11.0°C 41.9°F5.5°C 69% Calm Calm -- 30.01 in1016.3 mb - 0.00 in0.0 mm 0.05 in1.3 mm
09:40 PM 51.8°F11.0°C 42.3°F5.7°C 70% Calm Calm -- 30.02 in1016.6 mb - 0.00 in0.0 mm 0.05 in1.3 mm
09:45 PM 50.0°F10.0°C 40.6°F4.8°C 70% Calm Calm -- 30.02 in1016.6 mb - 0.00 in0.0 mm 0.05 in1.3 mm
09:50 PM 50.0°F10.0°C 40.6°F4.8°C 70% Calm Calm -- 30.02 in1016.6 mb - 0.00 in0.0 mm 0.05 in1.3 mm
09:55 PM 50.0°F10.0°C 40.6°F4.8°C 70% Calm Calm -- 30.02 in1016.6 mb - 0.00 in0.0 mm 0.05 in1.3 mm
10:00 PM 50.0°F10.0°C 40.6°F4.8°C 70% Calm Calm -- 30.02 in1016.6 mb - 0.00 in0.0 mm 0.05 in1.3 mm
10:10 PM 49.5°F9.7°C 41.2°F5.1°C 73% Calm Calm -- 30.02 in1016.6 mb - 0.00 in0.0 mm 0.05 in1.3 mm
10:15 PM 49.3°F9.6°C 41.3°F5.2°C 74% Calm Calm -- 30.02 in1016.6 mb - 0.00 in0.0 mm 0.05 in1.3 mm
10:20 PM 48.9°F9.4°C 41.0°F5.0°C 74% Calm Calm -- 30.02 in1016.6 mb - 0.00 in0.0 mm 0.05 in1.3 mm
10:25 PM 48.6°F9.2°C 41.0°F5.0°C 75% Calm Calm -- 30.02 in1016.6 mb - 0.00 in0.0 mm 0.05 in1.3 mm
10:30 PM 48.6°F9.2°C 41.0°F5.0°C 75% Calm Calm -- 30.02 in1016.6 mb - 0.00 in0.0 mm 0.05 in1.3 mm
10:35 PM 48.6°F9.2°C 41.0°F5.0°C 75% Calm Calm -- 30.02 in1016.6 mb - 0.00 in0.0 mm 0.05 in1.3 mm
10:40 PM 48.6°F9.2°C 41.0°F5.0°C 75% Calm Calm -- 30.02 in1016.6 mb - 0.00 in0.0 mm 0.05 in1.3 mm
10:45 PM 48.4°F9.1°C 40.8°F4.9°C 75% Calm Calm -- 30.02 in1016.6 mb - 0.00 in0.0 mm 0.05 in1.3 mm
10:50 PM 48.2°F9.0°C 41.0°F5.0°C 76% Calm Calm -- 30.02 in1016.6 mb - 0.00 in0.0 mm 0.05 in1.3 mm
10:55 PM 48.0°F8.9°C 40.8°F4.9°C 76% Calm Calm -- 30.02 in1016.6 mb - 0.00 in0.0 mm 0.05 in1.3 mm
11:00 PM 48.4°F9.1°C 40.8°F4.9°C 75% Calm Calm -- 30.02 in1016.6 mb - 0.00 in0.0 mm 0.05 in1.3 mm
11:10 PM 48.2°F9.0°C 40.6°F4.8°C 75% Calm Calm -- 30.02 in1016.6 mb - 0.00 in0.0 mm 0.05 in1.3 mm
11:15 PM 47.7°F8.7°C 40.1°F4.5°C 75% Calm Calm -- 30.02 in1016.6 mb - 0.00 in0.0 mm 0.05 in1.3 mm
11:20 PM 47.7°F8.7°C 40.1°F4.5°C 75% Calm Calm -- 30.02 in1016.6 mb - 0.00 in0.0 mm 0.05 in1.3 mm
11:25 PM 47.5°F8.6°C 40.3°F4.6°C 76% Calm Calm -- 30.02 in1016.6 mb - 0.00 in0.0 mm 0.05 in1.3 mm
11:30 PM 47.5°F8.6°C 40.3°F4.6°C 76% Calm Calm -- 30.01 in1016.3 mb - 0.00 in0.0 mm 0.05 in1.3 mm
11:35 PM 47.3°F8.5°C 40.8°F4.9°C 78% Calm Calm -- 30.01 in1016.3 mb - 0.00 in0.0 mm 0.05 in1.3 mm
11:40 PM 47.3°F8.5°C 40.8°F4.9°C 78% Calm Calm -- 30.01 in1016.3 mb - 0.00 in0.0 mm 0.05 in1.3 mm
11:45 PM 47.1°F8.4°C 40.6°F4.8°C 78% Calm Calm -- 30.01 in1016.3 mb - 0.00 in0.0 mm 0.05 in1.3 mm
11:50 PM 46.8°F8.2°C 40.3°F4.6°C 78% Calm Calm -- 30.01 in1016.3 mb - 0.00 in0.0 mm 0.05 in1.3 mm
11:55 PM 46.8°F8.2°C 40.6°F4.8°C 79% Calm Calm -- 30.02 in1016.6 mb - 0.00 in0.0 mm 0.05 in1.3 mm